sensor_id;sensor_type;location;lat;lon;timestamp;pressure;altitude;pressure_sealevel;temperature;humidity
74621;BME280;64861;47.546;19.254;2023-03-24T00:00:38;99019.31;;;21.94;48.41
74621;BME280;64861;47.546;19.254;2023-03-24T00:03:04;99012.16;;;21.95;48.43
74621;BME280;64861;47.546;19.254;2023-03-24T00:05:30;99012.00;;;21.96;48.40
74621;BME280;64861;47.546;19.254;2023-03-24T00:07:55;99009.34;;;21.96;48.37
74621;BME280;64861;47.546;19.254;2023-03-24T00:10:22;98998.03;;;21.94;48.48
74621;BME280;64861;47.546;19.254;2023-03-24T00:12:48;98997.06;;;21.95;48.42
74621;BME280;64861;47.546;19.254;2023-03-24T00:15:16;98992.56;;;21.96;48.43
74621;BME280;64861;47.546;19.254;2023-03-24T00:17:44;98999.72;;;21.95;48.26
74621;BME280;64861;47.546;19.254;2023-03-24T00:20:13;99003.38;;;21.94;48.32
74621;BME280;64861;47.546;19.254;2023-03-24T00:22:41;98993.53;;;21.95;48.38
74621;BME280;64861;47.546;19.254;2023-03-24T00:25:09;98995.38;;;21.94;48.43
74621;BME280;64861;47.546;19.254;2023-03-24T00:27:35;98992.56;;;21.96;48.35
74621;BME280;64861;47.546;19.254;2023-03-24T00:30:04;98987.03;;;21.97;48.45
74621;BME280;64861;47.546;19.254;2023-03-24T00:32:30;98991.34;;;21.98;48.23
74621;BME280;64861;47.546;19.254;2023-03-24T00:34:55;98981.91;;;21.96;48.28
74621;BME280;64861;47.546;19.254;2023-03-24T00:37:21;98981.56;;;21.99;48.17
74621;BME280;64861;47.546;19.254;2023-03-24T00:39:48;98975.38;;;21.98;48.24
74621;BME280;64861;47.546;19.254;2023-03-24T00:42:14;98969.25;;;21.98;48.25
74621;BME280;64861;47.546;19.254;2023-03-24T00:44:39;98966.78;;;21.96;48.20
74621;BME280;64861;47.546;19.254;2023-03-24T00:47:05;98967.78;;;21.95;48.27
74621;BME280;64861;47.546;19.254;2023-03-24T00:49:31;98959.63;;;21.97;48.29
74621;BME280;64861;47.546;19.254;2023-03-24T00:52:22;98955.47;;;21.94;48.21
74621;BME280;64861;47.546;19.254;2023-03-24T00:54:51;98957.97;;;21.96;48.16
74621;BME280;64861;47.546;19.254;2023-03-24T00:57:20;98950.97;;;21.95;48.27
74621;BME280;64861;47.546;19.254;2023-03-24T00:59:51;98950.81;;;21.96;48.30
74621;BME280;64861;47.546;19.254;2023-03-24T01:02:21;98950.63;;;21.98;48.17
74621;BME280;64861;47.546;19.254;2023-03-24T01:04:56;98953.13;;;21.99;48.17
74621;BME280;64861;47.546;19.254;2023-03-24T01:07:24;98947.78;;;21.99;48.04
74621;BME280;64861;47.546;19.254;2023-03-24T01:09:50;98949.63;;;21.99;48.22
74621;BME280;64861;47.546;19.254;2023-03-24T01:12:47;98939.81;;;21.99;48.00
74621;BME280;64861;47.546;19.254;2023-03-24T01:15:17;98935.66;;;21.97;48.23
74621;BME280;64861;47.546;19.254;2023-03-24T01:17:44;98930.34;;;21.97;48.22
74621;BME280;64861;47.546;19.254;2023-03-24T01:20:11;98933.00;;;21.97;48.01
74621;BME280;64861;47.546;19.254;2023-03-24T01:22:39;98932.66;;;22.00;48.08
74621;BME280;64861;47.546;19.254;2023-03-24T01:25:13;98930.16;;;21.98;48.08
74621;BME280;64861;47.546;19.254;2023-03-24T01:27:42;98913.56;;;21.96;48.02
74621;BME280;64861;47.546;19.254;2023-03-24T01:30:10;98916.22;;;21.96;48.18
74621;BME280;64861;47.546;19.254;2023-03-24T01:32:37;98908.88;;;21.98;48.04
74621;BME280;64861;47.546;19.254;2023-03-24T01:35:03;98912.38;;;21.99;48.04
74621;BME280;64861;47.546;19.254;2023-03-24T01:37:28;98915.03;;;21.99;48.04
74621;BME280;64861;47.546;19.254;2023-03-24T01:39:54;98913.38;;;21.98;48.11
74621;BME280;64861;47.546;19.254;2023-03-24T01:42:22;98911.53;;;21.98;48.00
74621;BME280;64861;47.546;19.254;2023-03-24T01:44:50;98917.50;;;22.00;47.94
74621;BME280;64861;47.546;19.254;2023-03-24T01:47:16;98915.03;;;21.99;48.00
74621;BME280;64861;47.546;19.254;2023-03-24T01:49:51;98909.72;;;21.99;48.03
74621;BME280;64861;47.546;19.254;2023-03-24T01:52:23;98909.38;;;22.02;48.06
74621;BME280;64861;47.546;19.254;2023-03-24T01:55:06;98897.03;;;22.01;47.88
74621;BME280;64861;47.546;19.254;2023-03-24T01:57:37;98898.22;;;21.98;48.06
74621;BME280;64861;47.546;19.254;2023-03-24T02:00:10;98890.25;;;21.98;47.91
74621;BME280;64861;47.546;19.254;2023-03-24T02:02:37;98882.25;;;21.98;47.91
74621;BME280;64861;47.546;19.254;2023-03-24T02:05:07;98881.44;;;21.98;47.99
74621;BME280;64861;47.546;19.254;2023-03-24T02:07:55;98888.59;;;21.97;47.93
74621;BME280;64861;47.546;19.254;2023-03-24T02:10:24;98890.06;;;22.00;47.82
74621;BME280;64861;47.546;19.254;2023-03-24T02:12:50;98883.94;;;21.99;47.94
74621;BME280;64861;47.546;19.254;2023-03-24T02:15:17;98879.59;;;21.98;47.99
74621;BME280;64861;47.546;19.254;2023-03-24T02:17:50;98880.44;;;21.99;47.87
74621;BME280;64861;47.546;19.254;2023-03-24T02:20:47;98879.59;;;21.98;48.02
74621;BME280;64861;47.546;19.254;2023-03-24T02:23:42;98878.16;;;21.96;47.89
74621;BME280;64861;47.546;19.254;2023-03-24T02:29:37;98889.41;;;21.98;47.84
74621;BME280;64861;47.546;19.254;2023-03-24T02:35:28;98882.25;;;21.98;48.02
74621;BME280;64861;47.546;19.254;2023-03-24T02:38:43;98882.91;;;22.00;47.99
74621;BME280;64861;47.546;19.254;2023-03-24T02:44:23;98895.56;;;21.98;47.94
74621;BME280;64861;47.546;19.254;2023-03-24T02:53:06;98878.63;;;21.99;47.87
74621;BME280;64861;47.546;19.254;2023-03-24T03:00:59;98872.47;;;21.99;47.90
74621;BME280;64861;47.546;19.254;2023-03-24T03:03:35;98873.44;;;21.98;47.93
74621;BME280;64861;47.546;19.254;2023-03-24T03:06:19;98872.28;;;22.00;47.79
74621;BME280;64861;47.546;19.254;2023-03-24T03:08:46;98869.63;;;22.00;47.91
74621;BME280;64861;47.546;19.254;2023-03-24T03:11:14;98864.28;;;22.00;47.86
74621;BME280;64861;47.546;19.254;2023-03-24T03:13:49;98863.47;;;22.00;48.03
74621;BME280;64861;47.546;19.254;2023-03-24T03:16:24;98863.47;;;22.00;47.86
74621;BME280;64861;47.546;19.254;2023-03-24T03:18:57;98860.81;;;22.00;47.69
74621;BME280;64861;47.546;19.254;2023-03-24T03:21:29;98852.00;;;21.99;47.77
74621;BME280;64861;47.546;19.254;2023-03-24T03:24:18;98854.66;;;21.99;47.82
74621;BME280;64861;47.546;19.254;2023-03-24T03:26:54;98850.16;;;22.00;47.77
74621;BME280;64861;47.546;19.254;2023-03-24T03:29:25;98856.31;;;22.00;47.77
74621;BME280;64861;47.546;19.254;2023-03-24T03:32:03;98859.78;;;22.01;47.79
74621;BME280;64861;47.546;19.254;2023-03-24T03:34:45;98857.13;;;22.01;47.71
74621;BME280;64861;47.546;19.254;2023-03-24T03:37:33;98859.63;;;22.02;47.58
74621;BME280;64861;47.546;19.254;2023-03-24T03:40:13;98852.28;;;22.04;47.63
74621;BME280;64861;47.546;19.254;2023-03-24T03:42:41;98849.72;;;21.96;47.85
74621;BME280;64861;47.546;19.254;2023-03-24T03:45:08;98851.19;;;21.99;47.73
74621;BME280;64861;47.546;19.254;2023-03-24T03:47:34;98849.50;;;21.98;47.80
74621;BME280;64861;47.546;19.254;2023-03-24T03:50:01;98844.19;;;21.98;47.71
74621;BME280;64861;47.546;19.254;2023-03-24T03:52:26;98849.16;;;22.01;47.69
74621;BME280;64861;47.546;19.254;2023-03-24T03:54:52;98841.16;;;22.01;47.83
74621;BME280;64861;47.546;19.254;2023-03-24T03:57:20;98846.50;;;22.01;47.77
74621;BME280;64861;47.546;19.254;2023-03-24T03:59:45;98842.00;;;22.01;47.74
74621;BME280;64861;47.546;19.254;2023-03-24T04:16:51;98827.25;;;21.99;47.69
74621;BME280;64861;47.546;19.254;2023-03-24T04:19:36;98826.03;;;22.01;47.82
74621;BME280;64861;47.546;19.254;2023-03-24T04:24:53;98834.00;;;22.01;47.68
74621;BME280;64861;47.546;19.254;2023-03-24T04:30:26;98838.34;;;22.02;47.60
74621;BME280;64861;47.546;19.254;2023-03-24T04:33:00;98833.84;;;22.03;47.69
74621;BME280;64861;47.546;19.254;2023-03-24T04:35:33;98836.88;;;22.00;47.65
74621;BME280;64861;47.546;19.254;2023-03-24T04:38:06;98836.50;;;22.03;47.56
74621;BME280;64861;47.546;19.254;2023-03-24T04:40:35;98831.19;;;22.03;47.54
74621;BME280;64861;47.546;19.254;2023-03-24T04:43:08;98836.88;;;22.00;47.53
74621;BME280;64861;47.546;19.254;2023-03-24T04:45:34;98836.03;;;21.99;47.68
74621;BME280;64861;47.546;19.254;2023-03-24T04:48:03;98840.19;;;22.02;47.68
74621;BME280;64861;47.546;19.254;2023-03-24T04:50:37;98840.81;;;22.04;47.52
74621;BME280;64861;47.546;19.254;2023-03-24T04:53:04;98837.69;;;22.00;47.50
74621;BME280;64861;47.546;19.254;2023-03-24T04:58:16;98836.31;;;22.04;47.51
74621;BME280;64861;47.546;19.254;2023-03-24T05:00:42;98841.63;;;22.04;47.58
74621;BME280;64861;47.546;19.254;2023-03-24T05:03:11;98842.94;;;22.09;47.49
74621;BME280;64861;47.546;19.254;2023-03-24T05:05:43;98836.13;;;22.06;47.46
74621;BME280;64861;47.546;19.254;2023-03-24T05:08:10;98840.63;;;22.05;47.48
74621;BME280;64861;47.546;19.254;2023-03-24T05:10:36;98841.47;;;22.06;47.48
74621;BME280;64861;47.546;19.254;2023-03-24T05:13:02;98842.94;;;22.09;47.35
74621;BME280;64861;47.546;19.254;2023-03-24T05:15:28;98852.09;;;22.06;47.52
74621;BME280;64861;47.546;19.254;2023-03-24T05:17:54;98846.22;;;22.11;47.49
74621;BME280;64861;47.546;19.254;2023-03-24T05:20:21;98846.59;;;22.08;47.34
74621;BME280;64861;47.546;19.254;2023-03-24T05:22:47;98855.03;;;22.11;47.25
74621;BME280;64861;47.546;19.254;2023-03-24T05:25:14;98863.84;;;22.12;47.48
74621;BME280;64861;47.546;19.254;2023-03-24T05:27:40;98863.66;;;22.13;47.33
74621;BME280;64861;47.546;19.254;2023-03-24T05:30:06;98864.47;;;22.14;47.33
74621;BME280;64861;47.546;19.254;2023-03-24T05:32:33;98866.50;;;22.12;47.44
74621;BME280;64861;47.546;19.254;2023-03-24T05:34:58;98855.69;;;22.13;47.24
74621;BME280;64861;47.546;19.254;2023-03-24T05:37:23;98859.97;;;22.14;47.18
74621;BME280;64861;47.546;19.254;2023-03-24T05:39:49;98862.66;;;22.14;47.31
74621;BME280;64861;47.546;19.254;2023-03-24T05:42:15;98867.63;;;22.17;47.13
74621;BME280;64861;47.546;19.254;2023-03-24T05:44:41;98867.84;;;22.16;47.24
74621;BME280;64861;47.546;19.254;2023-03-24T05:47:07;98864.97;;;22.17;47.24
74621;BME280;64861;47.546;19.254;2023-03-24T05:49:33;98873.28;;;22.14;47.37
74621;BME280;64861;47.546;19.254;2023-03-24T05:51:58;98869.13;;;22.20;47.18
74621;BME280;64861;47.546;19.254;2023-03-24T05:54:24;98868.91;;;22.21;47.19
74621;BME280;64861;47.546;19.254;2023-03-24T05:56:50;98865.72;;;22.26;47.18
74621;BME280;64861;47.546;19.254;2023-03-24T05:59:16;98869.22;;;22.26;47.12
74621;BME280;64861;47.546;19.254;2023-03-24T06:01:41;98871.22;;;22.24;47.21
74621;BME280;64861;47.546;19.254;2023-03-24T06:04:07;98866.34;;;22.28;47.37
74621;BME280;64861;47.546;19.254;2023-03-24T06:06:33;98877.28;;;22.33;47.22
74621;BME280;64861;47.546;19.254;2023-03-24T06:08:59;98882.59;;;22.33;47.28
74621;BME280;64861;47.546;19.254;2023-03-24T06:11:27;98877.94;;;22.35;47.26
74621;BME280;64861;47.546;19.254;2023-03-24T06:13:53;98876.34;;;22.41;47.05
74621;BME280;64861;47.546;19.254;2023-03-24T06:16:25;98878.66;;;22.44;47.16
74621;BME280;64861;47.546;19.254;2023-03-24T06:18:50;98877.28;;;22.48;47.08
74621;BME280;64861;47.546;19.254;2023-03-24T06:21:17;98869.28;;;22.48;47.13
74621;BME280;64861;47.546;19.254;2023-03-24T06:23:44;98868.75;;;22.52;47.16
74621;BME280;64861;47.546;19.254;2023-03-24T06:26:11;98869.00;;;22.58;46.84
74621;BME280;64861;47.546;19.254;2023-03-24T06:28:38;98877.63;;;22.60;46.97
74621;BME280;64861;47.546;19.254;2023-03-24T06:31:09;98874.31;;;22.58;47.03
74621;BME280;64861;47.546;19.254;2023-03-24T06:33:42;98876.38;;;22.56;47.30
74621;BME280;64861;47.546;19.254;2023-03-24T06:36:08;98880.47;;;22.58;47.29
74621;BME280;64861;47.546;19.254;2023-03-24T06:38:34;98874.78;;;22.61;47.17
74621;BME280;64861;47.546;19.254;2023-03-24T06:43:26;98874.78;;;22.61;47.11
74621;BME280;64861;47.546;19.254;2023-03-24T06:45:51;98874.78;;;22.61;47.16
74621;BME280;64861;47.546;19.254;2023-03-24T06:48:16;98881.78;;;22.62;46.23
74621;BME280;64861;47.546;19.254;2023-03-24T06:50:42;98877.72;;;22.66;46.61
74621;BME280;64861;47.546;19.254;2023-03-24T06:53:07;98875.72;;;22.68;46.98
74621;BME280;64861;47.546;19.254;2023-03-24T06:55:33;98873.88;;;22.69;46.78
74621;BME280;64861;47.546;19.254;2023-03-24T06:57:58;98879.28;;;22.75;46.91
74621;BME280;64861;47.546;19.254;2023-03-24T07:00:24;98880.38;;;22.66;45.31
74621;BME280;64861;47.546;19.254;2023-03-24T07:02:50;98883.88;;;22.82;46.02
74621;BME280;64861;47.546;19.254;2023-03-24T07:05:16;98884.06;;;22.95;45.75
74621;BME280;64861;47.546;19.254;2023-03-24T07:07:43;98881.72;;;23.07;45.32
74621;BME280;64861;47.546;19.254;2023-03-24T07:10:09;98871.75;;;23.15;45.16
74621;BME280;64861;47.546;19.254;2023-03-24T07:12:34;98872.66;;;23.23;45.05
74621;BME280;64861;47.546;19.254;2023-03-24T07:15:01;98873.91;;;23.27;45.24
74621;BME280;64861;47.546;19.254;2023-03-24T07:17:28;98873.38;;;23.31;44.92
74621;BME280;64861;47.546;19.254;2023-03-24T07:19:54;98877.09;;;23.37;44.75
74621;BME280;64861;47.546;19.254;2023-03-24T07:22:19;98872.03;;;23.42;44.78
74621;BME280;64861;47.546;19.254;2023-03-24T07:24:45;98870.25;;;23.49;44.58
74621;BME280;64861;47.546;19.254;2023-03-24T07:27:10;98865.94;;;23.48;45.10
74621;BME280;64861;47.546;19.254;2023-03-24T07:29:35;98867.38;;;23.51;45.89
74621;BME280;64861;47.546;19.254;2023-03-24T07:32:01;98864.69;;;23.51;45.38
74621;BME280;64861;47.546;19.254;2023-03-24T07:34:28;98853.91;;;23.59;45.73
74621;BME280;64861;47.546;19.254;2023-03-24T07:36:54;98857.84;;;23.63;45.19
74621;BME280;64861;47.546;19.254;2023-03-24T07:39:20;98848.06;;;23.70;45.21
74621;BME280;64861;47.546;19.254;2023-03-24T07:41:46;98847.13;;;23.78;45.24
74621;BME280;64861;47.546;19.254;2023-03-24T07:44:11;98836.50;;;23.84;45.29
74621;BME280;64861;47.546;19.254;2023-03-24T07:46:37;98836.72;;;23.89;44.65
74621;BME280;64861;47.546;19.254;2023-03-24T07:49:04;98823.81;;;23.93;44.83
74621;BME280;64861;47.546;19.254;2023-03-24T07:51:30;98826.47;;;23.93;44.94
74621;BME280;64861;47.546;19.254;2023-03-24T07:53:56;98835.59;;;24.05;44.40
74621;BME280;64861;47.546;19.254;2023-03-24T07:56:22;98830.09;;;24.13;44.55
74621;BME280;64861;47.546;19.254;2023-03-24T07:58:48;98829.56;;;24.25;44.65
74621;BME280;64861;47.546;19.254;2023-03-24T08:01:14;98827.91;;;24.30;43.91
74621;BME280;64861;47.546;19.254;2023-03-24T08:03:39;98832.47;;;24.36;43.80
74621;BME280;64861;47.546;19.254;2023-03-24T08:06:07;98837.44;;;24.39;43.80
74621;BME280;64861;47.546;19.254;2023-03-24T08:08:33;98838.31;;;24.47;44.18
74621;BME280;64861;47.546;19.254;2023-03-24T08:10:59;98842.25;;;24.51;44.13
74621;BME280;64861;47.546;19.254;2023-03-24T08:13:25;98831.59;;;24.57;44.02
74621;BME280;64861;47.546;19.254;2023-03-24T08:15:51;98831.81;;;24.63;44.19
74621;BME280;64861;47.546;19.254;2023-03-24T08:18:19;98823.63;;;24.71;43.62
74621;BME280;64861;47.546;19.254;2023-03-24T08:20:46;98819.31;;;24.76;43.64
74621;BME280;64861;47.546;19.254;2023-03-24T08:23:12;98808.84;;;24.81;43.43
74621;BME280;64861;47.546;19.254;2023-03-24T08:25:38;98804.56;;;24.87;43.21
74621;BME280;64861;47.546;19.254;2023-03-24T08:28:04;98811.75;;;24.93;43.43
74621;BME280;64861;47.546;19.254;2023-03-24T08:30:30;98804.16;;;24.97;43.16
74621;BME280;64861;47.546;19.254;2023-03-24T08:32:58;98799.84;;;25.09;43.14
74621;BME280;64861;47.546;19.254;2023-03-24T08:35:34;98798.03;;;25.16;43.16
74621;BME280;64861;47.546;19.254;2023-03-24T08:38:02;98793.94;;;25.20;43.05
74621;BME280;64861;47.546;19.254;2023-03-24T08:40:29;98791.88;;;25.29;43.02
74621;BME280;64861;47.546;19.254;2023-03-24T08:42:58;98787.56;;;25.41;42.70
74621;BME280;64861;47.546;19.254;2023-03-24T08:45:26;98793.53;;;25.50;42.39
74621;BME280;64861;47.546;19.254;2023-03-24T08:47:53;98786.53;;;25.49;42.67
74621;BME280;64861;47.546;19.254;2023-03-24T08:50:21;98784.88;;;25.68;42.31
74621;BME280;64861;47.546;19.254;2023-03-24T08:52:48;98787.69;;;26.13;41.34
74621;BME280;64861;47.546;19.254;2023-03-24T08:55:15;98787.56;;;26.53;40.55
74621;BME280;64861;47.546;19.254;2023-03-24T08:57:41;98796.28;;;27.11;39.53
74621;BME280;64861;47.546;19.254;2023-03-24T09:00:06;98779.94;;;27.95;37.97
74621;BME280;64861;47.546;19.254;2023-03-24T09:02:39;98776.84;;;28.65;36.69
74621;BME280;64861;47.546;19.254;2023-03-24T09:05:05;98776.22;;;29.11;35.99
74621;BME280;64861;47.546;19.254;2023-03-24T09:07:30;98787.53;;;29.01;36.08
74621;BME280;64861;47.546;19.254;2023-03-24T09:09:56;98770.13;;;29.04;36.03
74621;BME280;64861;47.546;19.254;2023-03-24T09:12:21;98776.34;;;28.86;36.53
74621;BME280;64861;47.546;19.254;2023-03-24T09:14:48;98773.28;;;29.13;35.80
74621;BME280;64861;47.546;19.254;2023-03-24T09:17:14;98783.00;;;29.25;35.56
74621;BME280;64861;47.546;19.254;2023-03-24T09:19:40;98779.88;;;29.52;35.26
74621;BME280;64861;47.546;19.254;2023-03-24T09:22:06;98766.41;;;29.40;35.18
74621;BME280;64861;47.546;19.254;2023-03-24T09:24:31;98771.94;;;29.57;35.00
74621;BME280;64861;47.546;19.254;2023-03-24T09:26:57;98766.53;;;29.92;34.50
74621;BME280;64861;47.546;19.254;2023-03-24T09:29:22;98767.13;;;29.83;34.48
74621;BME280;64861;47.546;19.254;2023-03-24T09:31:48;98766.09;;;29.72;34.77
74621;BME280;64861;47.546;19.254;2023-03-24T09:34:13;98763.66;;;30.34;33.80
74621;BME280;64861;47.546;19.254;2023-03-24T09:36:39;98759.06;;;30.47;33.34
74621;BME280;64861;47.546;19.254;2023-03-24T09:39:04;98762.28;;;30.60;33.25
74621;BME280;64861;47.546;19.254;2023-03-24T09:41:30;98762.53;;;30.76;32.98
74621;BME280;64861;47.546;19.254;2023-03-24T09:44:06;98761.66;;;30.70;33.00
74621;BME280;64861;47.546;19.254;2023-03-24T09:46:43;98762.72;;;30.98;32.48
74621;BME280;64861;47.546;19.254;2023-03-24T09:49:22;98748.97;;;30.42;33.26
74621;BME280;64861;47.546;19.254;2023-03-24T09:51:53;98746.78;;;30.67;32.79
74621;BME280;64861;47.546;19.254;2023-03-24T09:54:38;98746.81;;;30.84;32.58
74621;BME280;64861;47.546;19.254;2023-03-24T09:57:15;98738.84;;;30.89;32.36
74621;BME280;64861;47.546;19.254;2023-03-24T09:59:43;98731.59;;;30.78;32.78
74621;BME280;64861;47.546;19.254;2023-03-24T10:02:13;98729.66;;;30.91;32.13
74621;BME280;64861;47.546;19.254;2023-03-24T10:04:40;98726.56;;;30.99;32.26
74621;BME280;64861;47.546;19.254;2023-03-24T10:07:14;98724.44;;;30.84;32.37
74621;BME280;64861;47.546;19.254;2023-03-24T10:09:40;98718.06;;;30.61;32.66
74621;BME280;64861;47.546;19.254;2023-03-24T10:15:25;98719.19;;;30.77;32.50
74621;BME280;64861;47.546;19.254;2023-03-24T10:20:46;98713.88;;;30.54;32.94
74621;BME280;64861;47.546;19.254;2023-03-24T10:29:21;98699.75;;;27.98;37.28
74621;BME280;64861;47.546;19.254;2023-03-24T10:31:51;98700.16;;;27.58;38.30
74621;BME280;64861;47.546;19.254;2023-03-24T10:34:19;98710.28;;;28.48;36.40
74621;BME280;64861;47.546;19.254;2023-03-24T10:36:46;98692.94;;;28.74;35.79
74621;BME280;64861;47.546;19.254;2023-03-24T10:39:15;98699.22;;;29.10;35.26
74621;BME280;64861;47.546;19.254;2023-03-24T10:41:42;98691.91;;;29.93;33.92
74621;BME280;64861;47.546;19.254;2023-03-24T10:44:08;98682.47;;;29.79;33.82
74621;BME280;64861;47.546;19.254;2023-03-24T10:46:39;98680.84;;;29.66;34.02
74621;BME280;64861;47.546;19.254;2023-03-24T10:51:43;98679.66;;;29.50;34.24
74621;BME280;64861;47.546;19.254;2023-03-24T10:54:21;98683.06;;;29.69;33.93
74621;BME280;64861;47.546;19.254;2023-03-24T11:02:17;98674.22;;;28.68;35.78
74621;BME280;64861;47.546;19.254;2023-03-24T11:04:56;98680.63;;;28.55;35.95
74621;BME280;64861;47.546;19.254;2023-03-24T11:07:29;98674.38;;;28.24;36.11
74621;BME280;64861;47.546;19.254;2023-03-24T11:15:20;98656.38;;;27.39;38.02
74621;BME280;64861;47.546;19.254;2023-03-24T11:17:54;98661.53;;;27.78;37.52
74621;BME280;64861;47.546;19.254;2023-03-24T11:20:42;98662.19;;;27.55;37.81
74621;BME280;64861;47.546;19.254;2023-03-24T11:25:52;98652.25;;;25.85;40.91
74621;BME280;64861;47.546;19.254;2023-03-24T11:28:26;98644.94;;;25.47;41.70
74621;BME280;64861;47.546;19.254;2023-03-24T11:30:53;98648.50;;;25.21;42.24
74621;BME280;64861;47.546;19.254;2023-03-24T11:33:28;98641.50;;;25.00;42.67
74621;BME280;64861;47.546;19.254;2023-03-24T11:35:58;98636.38;;;24.79;43.04
74621;BME280;64861;47.546;19.254;2023-03-24T11:38:30;98636.34;;;24.66;43.55
74621;BME280;64861;47.546;19.254;2023-03-24T11:40:58;98641.69;;;24.52;43.35
74621;BME280;64861;47.546;19.254;2023-03-24T11:43:25;98638.41;;;24.44;43.45
74621;BME280;64861;47.546;19.254;2023-03-24T11:48:38;98626.06;;;24.43;43.94
74621;BME280;64861;47.546;19.254;2023-03-24T11:51:21;98617.81;;;24.37;44.32
74621;BME280;64861;47.546;19.254;2023-03-24T11:53:50;98613.88;;;24.33;44.43
74621;BME280;64861;47.546;19.254;2023-03-24T11:56:26;98608.13;;;24.30;44.39
74621;BME280;64861;47.546;19.254;2023-03-24T12:02:12;98596.63;;;24.23;44.62
74621;BME280;64861;47.546;19.254;2023-03-24T12:12:37;98574.25;;;24.30;43.93
74621;BME280;64861;47.546;19.254;2023-03-24T12:20:49;98571.75;;;24.09;44.46
74621;BME280;64861;47.546;19.254;2023-03-24T12:23:25;98571.53;;;24.10;44.54
74621;BME280;64861;47.546;19.254;2023-03-24T12:26:22;98557.59;;;24.08;44.50
74621;BME280;64861;47.546;19.254;2023-03-24T12:32:17;98547.09;;;24.07;44.64
74621;BME280;64861;47.546;19.254;2023-03-24T12:35:10;98542.16;;;23.97;44.93
74621;BME280;64861;47.546;19.254;2023-03-24T12:38:09;98541.13;;;23.91;45.14
74621;BME280;64861;47.546;19.254;2023-03-24T12:45:45;98529.84;;;23.89;45.08
74621;BME280;64861;47.546;19.254;2023-03-24T12:48:43;98531.47;;;23.90;45.19
74621;BME280;64861;47.546;19.254;2023-03-24T12:51:29;98534.16;;;23.97;44.88
74621;BME280;64861;47.546;19.254;2023-03-24T12:56:37;98515.28;;;23.99;44.98
74621;BME280;64861;47.546;19.254;2023-03-24T12:59:10;98516.50;;;23.96;45.04
74621;BME280;64861;47.546;19.254;2023-03-24T13:01:43;98508.50;;;23.96;44.91
74621;BME280;64861;47.546;19.254;2023-03-24T13:04:14;98504.78;;;23.90;44.89
74621;BME280;64861;47.546;19.254;2023-03-24T13:06:56;98508.06;;;23.86;45.04
74621;BME280;64861;47.546;19.254;2023-03-24T13:12:06;98503.97;;;23.83;45.18
74621;BME280;64861;47.546;19.254;2023-03-24T13:14:48;98490.44;;;23.85;45.15
74621;BME280;64861;47.546;19.254;2023-03-24T13:17:20;98494.09;;;23.84;45.23
74621;BME280;64861;47.546;19.254;2023-03-24T13:19:49;98482.81;;;23.82;45.39
74621;BME280;64861;47.546;19.254;2023-03-24T13:22:17;98485.50;;;23.82;45.39
74621;BME280;64861;47.546;19.254;2023-03-24T13:24:45;98479.53;;;23.80;45.18
74621;BME280;64861;47.546;19.254;2023-03-24T13:27:25;98480.97;;;23.82;45.17
74621;BME280;64861;47.546;19.254;2023-03-24T13:32:47;98471.50;;;23.73;45.26
74621;BME280;64861;47.546;19.254;2023-03-24T13:37:54;98478.28;;;23.69;45.25
74621;BME280;64861;47.546;19.254;2023-03-24T13:40:26;98474.13;;;23.66;45.28
74621;BME280;64861;47.546;19.254;2023-03-24T13:43:08;98469.41;;;23.62;45.69
74621;BME280;64861;47.546;19.254;2023-03-24T13:45:49;98470.63;;;23.59;45.75
74621;BME280;64861;47.546;19.254;2023-03-24T13:48:25;98453.81;;;23.59;45.57
74621;BME280;64861;47.546;19.254;2023-03-24T13:50:56;98449.69;;;23.56;45.66
74621;BME280;64861;47.546;19.254;2023-03-24T13:55:54;98459.97;;;23.53;45.63
74621;BME280;64861;47.546;19.254;2023-03-24T13:58:22;98461.41;;;23.55;45.73
74621;BME280;64861;47.546;19.254;2023-03-24T14:03:42;98453.59;;;23.60;45.85
74621;BME280;64861;47.546;19.254;2023-03-24T14:06:15;98450.53;;;23.63;45.88
74621;BME280;64861;47.546;19.254;2023-03-24T14:17:12;98433.94;;;23.61;46.09
74621;BME280;64861;47.546;19.254;2023-03-24T14:24:58;98425.69;;;23.56;45.29
74621;BME280;64861;47.546;19.254;2023-03-24T14:27:32;98421.59;;;23.54;45.52
74621;BME280;64861;47.546;19.254;2023-03-24T14:30:15;98415.03;;;23.50;45.55
74621;BME280;64861;47.546;19.254;2023-03-24T14:32:45;98418.72;;;23.49;45.44
74621;BME280;64861;47.546;19.254;2023-03-24T14:35:44;98415.63;;;23.45;45.59
74621;BME280;64861;47.546;19.254;2023-03-24T14:40:45;98418.31;;;23.45;45.61
74621;BME280;64861;47.546;19.254;2023-03-24T14:48:39;98409.25;;;23.39;45.98
74621;BME280;64861;47.546;19.254;2023-03-24T14:51:15;98408.03;;;23.35;45.96
74621;BME280;64861;47.546;19.254;2023-03-24T14:53:44;98408.84;;;23.36;46.15
74621;BME280;64861;47.546;19.254;2023-03-24T14:56:13;98410.28;;;23.38;46.36
74621;BME280;64861;47.546;19.254;2023-03-24T14:58:41;98413.34;;;23.35;46.36
74621;BME280;64861;47.546;19.254;2023-03-24T15:01:09;98401.25;;;23.33;46.45
74621;BME280;64861;47.546;19.254;2023-03-24T15:03:47;98402.88;;;23.34;46.51
74621;BME280;64861;47.546;19.254;2023-03-24T15:06:18;98400.63;;;23.31;46.32
74621;BME280;64861;47.546;19.254;2023-03-24T15:08:51;98396.72;;;23.33;46.11
74621;BME280;64861;47.546;19.254;2023-03-24T15:11:21;98395.28;;;23.31;46.23
74621;BME280;64861;47.546;19.254;2023-03-24T15:13:54;98392.84;;;23.29;46.37
74621;BME280;64861;47.546;19.254;2023-03-24T15:16:24;98391.38;;;23.27;46.45
74621;BME280;64861;47.546;19.254;2023-03-24T15:18:59;98387.69;;;23.34;46.20
74621;BME280;64861;47.546;19.254;2023-03-24T15:23:58;98384.44;;;23.32;46.42
74621;BME280;64861;47.546;19.254;2023-03-24T15:26:27;98376.63;;;23.31;46.66
74621;BME280;64861;47.546;19.254;2023-03-24T15:29:13;98384.63;;;23.31;44.83